createdAt,value
2023-02-09T00:00:46.914Z,102117
2023-02-09T00:06:36.379Z,102118
2023-02-09T00:12:26.140Z,102119
2023-02-09T00:18:15.232Z,102115
2023-02-09T00:24:05.214Z,102107
2023-02-09T00:29:54.987Z,102096
2023-02-09T00:35:44.638Z,102093
2023-02-09T00:41:34.402Z,102089
2023-02-09T00:47:24.225Z,102086
2023-02-09T00:53:14.355Z,102075
2023-02-09T00:59:03.083Z,102074
2023-02-09T01:04:53.138Z,102080
2023-02-09T01:10:46.184Z,102065
2023-02-09T01:16:36.379Z,102073
2023-02-09T01:22:27.088Z,102078
2023-02-09T01:28:17.521Z,102090
2023-02-09T01:34:08.212Z,102067
2023-02-09T01:39:57.830Z,102066
2023-02-09T01:45:48.761Z,102071
2023-02-09T01:51:40.764Z,102074
2023-02-09T01:57:31.908Z,102073
2023-02-09T02:03:22.230Z,102072
2023-02-09T02:09:12.165Z,102073
2023-02-09T02:15:02.406Z,102067
2023-02-09T02:20:55.222Z,102065
2023-02-09T02:26:45.457Z,102078
2023-02-09T02:32:35.098Z,102077
2023-02-09T02:38:25.985Z,102088
2023-02-09T02:44:16.979Z,102085
2023-02-09T02:50:09.616Z,102086
2023-02-09T02:55:59.056Z,102086
2023-02-09T03:01:49.439Z,102094
2023-02-09T03:07:41.108Z,102093
2023-02-09T03:13:31.788Z,102097
2023-02-09T03:19:21.492Z,102086
2023-02-09T03:25:11.450Z,102087
2023-02-09T03:31:04.165Z,102083
2023-02-09T03:36:56.348Z,102085
2023-02-09T03:42:46.929Z,102080
2023-02-09T03:48:37.223Z,102088
2023-02-09T03:54:27.833Z,102096
2023-02-09T04:00:18.868Z,102085
2023-02-09T04:06:10.715Z,102078
2023-02-09T04:12:00.946Z,102067
2023-02-09T04:17:54.064Z,102081
2023-02-09T04:23:43.765Z,102076
2023-02-09T04:29:35.609Z,102081
2023-02-09T04:35:25.346Z,102082
2023-02-09T04:41:15.173Z,102088
2023-02-09T04:47:04.885Z,102079
2023-02-09T04:52:55.925Z,102064
2023-02-09T04:58:47.192Z,102060
2023-02-09T05:04:37.401Z,102055
2023-02-09T05:10:28.991Z,102060
2023-02-09T05:16:24.551Z,102049
2023-02-09T05:22:14.810Z,102046
2023-02-09T05:28:05.205Z,102034
2023-02-09T05:33:57.922Z,102035
2023-02-09T05:39:47.961Z,102033
2023-02-09T05:45:39.484Z,102031
2023-02-09T05:51:29.630Z,102015
2023-02-09T05:57:19.771Z,102016
2023-02-09T06:03:10.811Z,102011
2023-02-09T06:09:01.649Z,102018
2023-02-09T06:14:54.285Z,102015
2023-02-09T06:20:45.352Z,102019
2023-02-09T06:26:37.373Z,102012
2023-02-09T06:32:28.024Z,102029
2023-02-09T06:38:18.785Z,102043
2023-02-09T06:44:09.684Z,102043
2023-02-09T06:49:59.761Z,102053
2023-02-09T06:55:50.874Z,102061
2023-02-09T07:01:41.433Z,102050
2023-02-09T07:07:32.134Z,102053
2023-02-09T07:13:23.782Z,102049
2023-02-09T07:19:14.349Z,102032
2023-02-09T07:25:04.365Z,102042
2023-02-09T07:30:56.380Z,102041
2023-02-09T07:36:50.029Z,102053
2023-02-09T07:42:40.239Z,102055
2023-02-09T07:48:31.034Z,102051
2023-02-09T07:54:21.266Z,102045
2023-02-09T08:00:11.936Z,102026
2023-02-09T08:06:02.964Z,102043
2023-02-09T08:11:53.754Z,102066
2023-02-09T08:17:44.494Z,102085
2023-02-09T08:23:35.227Z,102098
2023-02-09T08:29:28.186Z,102097
2023-02-09T08:35:18.988Z,102080
2023-02-09T08:41:09.896Z,102067
2023-02-09T08:47:01.495Z,102071
2023-02-09T08:52:53.900Z,102070
2023-02-09T08:58:44.280Z,102065
2023-02-09T09:04:34.708Z,102074
2023-02-09T09:10:25.654Z,102088
2023-02-09T09:16:16.609Z,102101
2023-02-09T09:22:05.730Z,102117
2023-02-09T09:27:56.352Z,102108
2023-02-09T09:33:46.894Z,102108
2023-02-09T09:39:37.337Z,102129
2023-02-09T09:45:28.019Z,102116
2023-02-09T09:51:18.162Z,102112
2023-02-09T09:57:07.436Z,102125
2023-02-09T10:02:57.765Z,102129
2023-02-09T10:08:48.597Z,102146
2023-02-09T10:14:40.117Z,102143
2023-02-09T10:20:35.051Z,102145
2023-02-09T10:26:25.041Z,102151
2023-02-09T10:32:15.713Z,102156
2023-02-09T10:38:05.829Z,102161
2023-02-09T10:43:57.368Z,102143
2023-02-09T10:49:49.204Z,102146
2023-02-09T10:55:42.040Z,102143
2023-02-09T11:01:32.855Z,102143
2023-02-09T11:07:23.268Z,102134
2023-02-09T11:13:14.519Z,102129
2023-02-09T11:19:11.008Z,102129
2023-02-09T11:25:01.075Z,102120
2023-02-09T11:30:53.129Z,102110
2023-02-09T11:36:45.556Z,102099
2023-02-09T11:42:36.302Z,102104
2023-02-09T11:48:27.338Z,102080
2023-02-09T11:54:17.676Z,102076
2023-02-09T12:00:08.344Z,102070
2023-02-09T12:05:59.214Z,102069
2023-02-09T12:11:50.438Z,102071
2023-02-09T12:17:41.041Z,102060
2023-02-09T12:23:32.978Z,102055
2023-02-09T12:29:23.492Z,102050
2023-02-09T12:35:13.675Z,102043
2023-02-09T12:41:04.452Z,102034
2023-02-09T12:46:55.028Z,102032
2023-02-09T12:52:44.826Z,102037
2023-02-09T12:58:35.365Z,102038
2023-02-09T13:04:25.640Z,102028
2023-02-09T13:10:16.120Z,102033
2023-02-09T13:16:10.104Z,102027
2023-02-09T13:22:00.142Z,102013
2023-02-09T13:27:50.545Z,102028
2023-02-09T13:33:42.725Z,102027
2023-02-09T13:39:32.815Z,102021
2023-02-09T13:45:24.438Z,102016
2023-02-09T13:51:16.975Z,102008
2023-02-09T13:57:07.783Z,102011
2023-02-09T14:02:57.856Z,102021
2023-02-09T14:08:49.839Z,102028
2023-02-09T14:14:41.507Z,102023
2023-02-09T14:20:32.057Z,102025
2023-02-09T14:26:22.215Z,102027
2023-02-09T14:32:12.961Z,102027
2023-02-09T14:38:20.537Z,102035
2023-02-09T14:44:11.551Z,102033
2023-02-09T14:50:03.057Z,102023
2023-02-09T14:57:02.231Z,102030
2023-02-09T15:02:52.243Z,102031
2023-02-09T15:08:43.060Z,102032
2023-02-09T15:14:34.455Z,102011
2023-02-09T15:20:25.766Z,102026
2023-02-09T15:26:16.337Z,102029
2023-02-09T15:32:06.896Z,102039
2023-02-09T15:37:57.910Z,102049
2023-02-09T15:43:48.202Z,102041
2023-02-09T15:49:38.341Z,102047
2023-02-09T15:55:28.836Z,102047
2023-02-09T16:01:18.666Z,102061
2023-02-09T16:07:09.927Z,102065
2023-02-09T16:13:00.421Z,102072
2023-02-09T16:18:49.150Z,102072
2023-02-09T16:24:39.260Z,102068
2023-02-09T16:30:29.643Z,102076
2023-02-09T16:36:20.586Z,102086
2023-02-09T16:42:10.740Z,102085
2023-02-09T16:48:02.581Z,102113
2023-02-09T16:53:52.248Z,102109
2023-02-09T16:59:42.574Z,102125
2023-02-09T17:05:33.652Z,102131
2023-02-09T17:11:24.384Z,102134
2023-02-09T17:17:18.725Z,102143
2023-02-09T17:23:08.052Z,102142
2023-02-09T17:28:58.365Z,102151
2023-02-09T17:34:48.876Z,102160
2023-02-09T17:40:40.635Z,102164
2023-02-09T17:46:31.361Z,102185
2023-02-09T17:52:21.576Z,102188
2023-02-09T17:58:11.970Z,102202
2023-02-09T18:04:02.394Z,102229
2023-02-09T18:09:52.928Z,102230
2023-02-09T18:15:40.779Z,102233
2023-02-09T18:21:31.207Z,102251
2023-02-09T18:27:21.084Z,102250
2023-02-09T18:33:12.293Z,102249
2023-02-09T18:39:03.788Z,102256
2023-02-09T18:44:54.412Z,102258
2023-02-09T18:50:44.878Z,102257
2023-02-09T18:56:34.804Z,102266
2023-02-09T19:02:24.040Z,102264
2023-02-09T19:08:15.189Z,102272
2023-02-09T19:14:05.259Z,102268
2023-02-09T19:19:55.784Z,102278
2023-02-09T19:25:46.142Z,102281
2023-02-09T19:31:37.097Z,102281
2023-02-09T19:37:27.603Z,102293
2023-02-09T19:43:16.480Z,102304
2023-02-09T19:49:09.333Z,102302
2023-02-09T19:55:01.083Z,102308
2023-02-09T20:00:51.252Z,102312
2023-02-09T20:06:41.343Z,102315
2023-02-09T20:12:30.456Z,102318
2023-02-09T20:18:22.429Z,102310
2023-02-09T20:24:12.564Z,102309
2023-02-09T20:30:01.641Z,102305
2023-02-09T20:35:50.538Z,102312
2023-02-09T20:41:43.685Z,102321
2023-02-09T20:47:33.399Z,102329
2023-02-09T20:53:23.469Z,102331
2023-02-09T20:59:13.573Z,102350
2023-02-09T21:05:04.584Z,102356
2023-02-09T21:10:55.715Z,102365
2023-02-09T21:16:46.197Z,102364
2023-02-09T21:22:37.390Z,102361
2023-02-09T21:28:27.980Z,102357
2023-02-09T21:34:18.718Z,102359
2023-02-09T21:40:09.441Z,102357
2023-02-09T21:46:00.050Z,102352
2023-02-09T21:51:50.055Z,102368
2023-02-09T21:57:40.352Z,102363
2023-02-09T22:03:30.769Z,102358
2023-02-09T22:09:22.213Z,102357
2023-02-09T22:15:13.726Z,102355
2023-02-09T22:21:03.707Z,102356
2023-02-09T22:26:53.839Z,102347
2023-02-09T22:32:42.620Z,102353
2023-02-09T22:38:32.528Z,102353
2023-02-09T22:44:22.759Z,102358
2023-02-09T22:50:15.804Z,102360
2023-02-09T22:56:05.996Z,102353
2023-02-09T23:03:08.961Z,102365
2023-02-09T23:08:55.642Z,102370
2023-02-09T23:14:44.979Z,102383
2023-02-09T23:20:35.643Z,102386
2023-02-09T23:26:24.366Z,102391
2023-02-09T23:32:13.144Z,102386
2023-02-09T23:38:02.319Z,102385
2023-02-09T23:43:53.034Z,102389
2023-02-09T23:49:45.020Z,102378
2023-02-09T23:55:36.083Z,102384
